Wednesday, November 21, 2018, 9:58 AM GMT
Back to Local

CWNH, Riviere Du Loup, Que.

Location: , , Canada Lat: 47.8
Local Time: 9:58 AM GMT ( 9:58 GMT) Lon: -69.55
Time Zone: GMT Elev: 485 ft

Show me the last for .
Show Coded

Time T Td Feel RH Dir Speed Gust Alt SLP Vis Weather Sky Remarks
2018-11-21 09:00 15 13 - 91 150° 1 - - 29.82 0 None
2018-11-21 08:00 16 14 - 91 140° 2 - - 29.83 0 1-hr Precip Total: 0.01"
2018-11-21 07:00 17 15 12 91 20° 3 - - 29.85 0 1-hr Precip Total: 0.02"
2018-11-21 06:00 17 15 11 90 20° 3 - - 29.86 0 1-hr Precip Total: 0.01"
2018-11-21 05:00 17 14 11 90 360° 3 - - 29.88 0 1-hr Precip Total: 0.01"
2018-11-21 04:00 16 15 - 92 50° 2 - - 29.90 0 None
2018-11-21 03:00 19 14 13 82 50° 3 - - 29.93 0 1-hr Precip Total: 0.01"
2018-11-21 02:00 16 13 9 88 30° 5 - - 29.94 0 1-hr Precip Total: 0.01"
2018-11-21 01:00 16 15 8 94 30° 6 - - 29.96 0 None
2018-11-21 00:00 16 15 8 94 40° 6 - - 29.98 0 1-hr Precip Total: 0.01"
2018-11-20 23:00 16 12 6 86 40° 7 - - 30.00 0 None
2018-11-20 22:00 16 12 7 84 40° 6 - - 30.01 0 None
2018-11-20 21:00 16 11 7 81 40° 6 - - 30.01 0 None
2018-11-20 20:00 16 13 6 86 20° 7 - - 30.02 0 None
2018-11-20 19:00 15 12 5 86 20° 8 - - 30.03 0 None
2018-11-20 18:00 16 11 6 82 10° 7 - - 30.04 0 None
2018-11-20 17:00 16 11 6 80 20° 7 - - 30.06 0 None
2018-11-20 16:00 16 11 6 80 30° 7 - - 30.08 0 None
2018-11-20 15:00 16 12 6 84 20° 7 - - 30.09 0 None
2018-11-20 14:00 15 11 6 83 20° 6 - - 30.10 0 None
2018-11-20 13:00 14 11 5 85 30° 6 - - 30.10 0 None
2018-11-20 12:00 14 11 7 85 20° 5 - - 30.11 0 None
2018-11-20 11:00 14 11 7 85 30° 5 - - 30.11 0 None
2018-11-20 10:00 14 10 5 85 10° 6 - - 30.10 0 None

Support USWX by starting your Amazon purchase here.